Time;durP1;ratioP1;P1;durP2;ratioP2;P2;SDS_P1;SDS_P2;PMS_P1;PMS_P2;Temp;Humidity;BMP_temperature;BMP_pressure;BME280_temperature;BME280_humidity;BME280_pressure;Samples;Min_cycle;Max_cycle;Signal;HPM_P1;HPM_P2
2022/06/04 00:00:19;;;;;;;39.38;20.70;;;11.50;99.90;;;;;;5055032;28;20400;-67
2022/06/04 00:02:46;;;;;;;36.90;22.23;;;11.50;99.90;;;;;;5068397;28;20036;-67
2022/06/04 00:05:16;;;;;;;29.35;23.17;;;11.50;99.90;;;;;;5068690;28;20120;-66
2022/06/04 00:07:42;;;;;;;29.17;21.38;;;11.40;99.90;;;;;;5063833;28;20044;-67
2022/06/04 00:15:44;;;;;;;37.60;21.25;;;11.40;99.90;;;;;;5052823;28;20098;-67
2022/06/04 00:18:10;;;;;;;44.22;25.02;;;11.40;99.90;;;;;;5048672;28;20147;-67
2022/06/04 00:20:36;;;;;;;33.65;24.23;;;11.40;99.90;;;;;;5047779;28;20155;-66
2022/06/04 00:23:05;;;;;;;28.05;20.58;;;11.30;99.90;;;;;;5055053;28;20549;-67
2022/06/04 00:25:31;;;;;;;35.53;22.48;;;11.30;99.90;;;;;;5052441;28;20041;-67
2022/06/04 00:28:02;;;;;;;35.53;23.45;;;11.30;99.90;;;;;;5050174;28;20033;-67
2022/06/04 00:30:28;;;;;;;52.72;23.20;;;11.20;99.90;;;;;;5060367;28;20056;-67
2022/06/04 00:32:53;;;;;;;32.67;24.70;;;11.20;99.90;;;;;;5064316;28;20124;-66
2022/06/04 00:35:20;;;;;;;29.30;23.65;;;11.20;99.90;;;;;;5048253;28;20115;-68
2022/06/04 00:37:48;;;;;;;35.08;23.60;;;11.10;99.90;;;;;;5034501;28;20069;-67
2022/06/04 00:40:31;;;;;;;33.38;20.60;;;11.10;99.90;;;;;;5058084;28;20375;-68
2022/06/04 00:42:58;;;;;;;32.05;21.52;;;11.10;99.90;;;;;;5063725;28;20076;-67
2022/06/04 00:45:26;;;;;;;29.20;20.10;;;11.10;99.90;;;;;;5060492;28;20079;-67
2022/06/04 00:47:52;;;;;;;32.53;20.13;;;11.10;99.90;;;;;;5053306;28;20119;-67
2022/06/04 00:50:20;;;;;;;26.92;19.70;;;11.10;99.90;;;;;;5057103;28;20446;-68
2022/06/04 00:52:48;;;;;;;27.35;19.00;;;11.10;99.90;;;;;;5064859;28;20113;-67
2022/06/04 00:55:14;;;;;;;27.63;20.33;;;11.00;99.90;;;;;;5064393;28;20036;-68
2022/06/04 00:57:43;;;;;;;37.15;18.45;;;11.00;99.90;;;;;;5065444;28;20048;-66
2022/06/04 01:00:18;;;;;;;32.58;19.40;;;11.00;99.90;;;;;;5046558;28;20118;-66
2022/06/04 01:03:16;;;;;;;29.67;20.30;;;11.00;99.90;;;;;;5047312;28;20689;-66
2022/06/04 01:06:06;;;;;;;39.30;20.88;;;11.00;99.90;;;;;;5045913;28;20045;-67
2022/06/04 01:08:58;;;;;;;39.60;19.13;;;11.00;99.90;;;;;;5048467;28;20045;-67
2022/06/04 01:14:37;;;;;;;;;;;11.00;99.90;;;;;;5047738;28;20056;-68
2022/06/04 01:17:17;;;;;;;43.67;20.65;;;10.90;99.90;;;;;;5051312;28;19924;-68
2022/06/04 01:19:54;;;;;;;27.13;18.38;;;10.90;99.90;;;;;;5062292;28;20051;-67
2022/06/04 01:22:58;;;;;;;33.00;19.33;;;10.80;99.90;;;;;;5047806;28;20044;-67
2022/06/04 01:25:50;;;;;;;28.92;17.73;;;10.90;99.90;;;;;;5050734;28;20056;-68
2022/06/04 01:28:16;;;;;;;38.78;20.33;;;10.90;99.90;;;;;;5054889;28;20044;-68
2022/06/04 01:30:52;;;;;;;32.45;19.33;;;10.90;99.90;;;;;;5052672;28;20041;-67
2022/06/04 01:33:21;;;;;;;41.17;19.77;;;10.90;99.90;;;;;;5050469;28;20470;-68
2022/06/04 01:36:14;;;;;;;33.85;18.98;;;10.90;99.90;;;;;;5051842;28;20098;-68
2022/06/04 01:38:48;;;;;;;34.90;21.02;;;10.90;99.90;;;;;;5052592;28;20502;-67
2022/06/04 01:41:39;;;;;;;34.40;19.80;;;10.90;99.90;;;;;;5047348;28;20842;-68
2022/06/04 01:44:14;;;;;;;37.17;19.00;;;10.80;99.90;;;;;;5047642;28;20498;-68
2022/06/04 01:46:46;;;;;;;31.83;19.33;;;10.80;99.90;;;;;;5057265;28;20073;-68
2022/06/04 01:49:34;;;;;;;34.65;20.10;;;10.80;99.90;;;;;;5057100;28;20059;-68
2022/06/04 01:52:04;;;;;;;33.40;19.98;;;10.80;99.90;;;;;;5062062;28;20095;-68
2022/06/04 01:54:37;;;;;;;29.10;20.02;;;10.80;99.90;;;;;;5047239;28;20083;-68
2022/06/04 01:57:24;;;;;;;40.25;20.40;;;10.80;99.90;;;;;;5046852;28;20037;-68
2022/06/04 01:59:59;;;;;;;31.17;19.73;;;10.80;99.90;;;;;;5055435;28;20049;-68
2022/06/04 02:02:35;;;;;;;36.22;19.27;;;10.80;99.90;;;;;;5049246;28;20048;-68
2022/06/04 02:05:06;;;;;;;32.20;18.85;;;10.80;99.90;;;;;;5061180;28;20045;-68
2022/06/04 02:07:38;;;;;;;40.13;19.77;;;10.80;99.90;;;;;;5048581;28;20045;-68
2022/06/04 02:10:13;;;;;;;26.75;18.30;;;10.80;99.90;;;;;;5061669;28;20041;-68
2022/06/04 02:12:42;;;;;;;36.35;18.15;;;10.70;99.90;;;;;;5067858;28;20032;-68
2022/06/04 02:15:12;;;;;;;27.40;17.02;;;10.70;99.90;;;;;;5063626;28;20080;-68
2022/06/04 02:17:44;;;;;;;35.85;20.15;;;10.70;99.90;;;;;;5050380;28;20087;-68
2022/06/04 02:20:11;;;;;;;24.27;18.10;;;10.70;99.90;;;;;;5063900;28;20040;-68
2022/06/04 02:22:37;;;;;;;27.85;18.90;;;10.70;99.90;;;;;;5061388;28;20067;-68
2022/06/04 02:25:09;;;;;;;45.70;19.35;;;10.70;99.90;;;;;;5068745;28;20036;-69
2022/06/04 02:27:35;;;;;;;35.58;19.60;;;10.70;99.90;;;;;;5070123;28;20511;-68
2022/06/04 02:30:02;;;;;;;30.33;18.77;;;10.70;99.90;;;;;;5068204;28;20040;-68
2022/06/04 02:32:46;;;;;;;30.27;18.23;;;10.70;99.90;;;;;;5050845;28;20037;-69
2022/06/04 02:35:23;;;;;;;37.33;18.38;;;10.70;99.90;;;;;;5058122;28;20052;-68
2022/06/04 02:38:15;;;;;;;40.27;21.00;;;10.70;99.90;;;;;;5061703;28;20045;-68
2022/06/04 02:41:05;;;;;;;34.03;18.35;;;10.70;99.90;;;;;;5055105;28;20509;-68
2022/06/04 02:43:38;;;;;;;35.13;20.08;;;10.70;99.90;;;;;;5053873;28;20769;-67
2022/06/04 02:46:14;;;;;;;33.38;18.77;;;10.70;99.90;;;;;;5061456;28;20102;-67
2022/06/04 02:49:10;;;;;;;34.45;19.90;;;10.70;99.90;;;;;;5064631;28;20048;-67
2022/06/04 02:51:44;;;;;;;28.17;18.13;;;10.70;99.90;;;;;;5050554;28;20045;-67
2022/06/04 02:54:18;;;;;;;47.28;19.88;;;10.70;99.90;;;;;;5050088;28;20048;-67
2022/06/04 02:56:46;;;;;;;33.10;19.70;;;10.60;99.90;;;;;;5054796;28;20133;-67
2022/06/04 02:59:16;;;;;;;32.05;18.70;;;10.60;99.90;;;;;;5061252;28;20040;-67
2022/06/04 03:01:44;;;;;;;34.35;18.65;;;10.50;99.90;;;;;;5070458;28;20141;-67
2022/06/04 03:04:10;;;;;;;;;;;10.50;99.90;;;;;;5057341;28;20040;-67
2022/06/04 03:06:37;;;;;;;29.00;17.77;;;10.50;99.90;;;;;;5069784;28;19966;-67
2022/06/04 03:09:16;;;;;;;30.17;19.63;;;10.50;99.90;;;;;;5063811;28;20033;-67
2022/06/04 03:11:44;;;;;;;32.05;19.63;;;10.50;99.90;;;;;;5051184;28;20040;-68
2022/06/04 03:14:11;;;;;;;33.15;20.40;;;10.50;99.90;;;;;;5055871;28;20642;-68
2022/06/04 03:16:38;;;;;;;38.78;19.00;;;10.50;99.90;;;;;;5049637;28;20041;-68
2022/06/04 03:19:08;;;;;;;27.67;17.55;;;10.50;99.90;;;;;;5057985;28;20036;-67
2022/06/04 03:21:36;;;;;;;30.95;17.52;;;10.50;99.90;;;;;;5062284;28;20076;-68
2022/06/04 03:24:02;;;;;;;38.78;18.25;;;10.40;99.90;;;;;;5060841;28;20040;-67
2022/06/04 03:26:28;;;;;;;37.47;17.80;;;10.40;99.90;;;;;;5051541;28;20047;-67
2022/06/04 03:28:54;;;;;;;25.33;16.73;;;10.40;99.90;;;;;;5050366;28;20045;-67
2022/06/04 03:31:19;;;;;;;30.70;16.65;;;10.40;99.90;;;;;;5054882;28;20041;-67
2022/06/04 03:33:48;;;;;;;26.52;15.98;;;10.30;99.90;;;;;;5049380;28;20068;-67
2022/06/04 03:36:14;;;;;;;28.00;15.38;;;10.30;99.90;;;;;;5056897;28;20515;-68
2022/06/04 03:38:39;;;;;;;25.88;15.07;;;10.30;99.90;;;;;;5056354;28;20045;-68
2022/06/04 03:41:06;;;;;;;27.83;16.55;;;10.30;99.90;;;;;;5052404;28;20072;-67
2022/06/04 03:43:32;;;;;;;29.60;15.48;;;10.40;99.90;;;;;;5054358;28;20048;-68
2022/06/04 03:45:58;;;;;;;29.80;15.60;;;10.40;99.90;;;;;;5062844;28;20037;-68
2022/06/04 03:48:23;;;;;;;23.75;14.48;;;10.40;99.90;;;;;;5047631;28;20045;-67
2022/06/04 03:50:49;;;;;;;33.05;14.45;;;10.40;99.90;;;;;;5059263;28;20489;-67
2022/06/04 03:53:15;;;;;;;27.33;14.93;;;10.50;99.90;;;;;;5051888;28;20094;-68
2022/06/04 03:55:41;;;;;;;22.65;13.93;;;10.40;99.90;;;;;;5048320;28;20036;-68
2022/06/04 03:58:06;;;;;;;29.08;16.23;;;10.40;99.90;;;;;;5047716;28;20040;-68
2022/06/04 04:00:41;;;;;;;36.40;15.43;;;10.50;99.90;;;;;;5056018;28;20090;-68
2022/06/04 04:03:14;;;;;;;24.40;14.90;;;10.50;99.90;;;;;;5058058;28;20888;-68
2022/06/04 04:05:48;;;;;;;38.08;15.20;;;10.60;99.90;;;;;;5066458;28;20052;-68
2022/06/04 04:08:14;;;;;;;27.70;13.27;;;10.60;99.90;;;;;;5060365;28;20048;-67
2022/06/04 04:10:42;;;;;;;27.92;13.60;;;10.70;99.90;;;;;;5067107;28;20037;-68
2022/06/04 04:13:08;;;;;;;29.95;13.25;;;10.80;99.90;;;;;;5051551;28;20112;-68
2022/06/04 04:15:35;;;;;;;20.20;12.88;;;10.80;99.90;;;;;;5047856;28;20094;-68
2022/06/04 04:18:01;;;;;;;25.80;13.05;;;10.80;99.90;;;;;;5047932;28;20069;-68
2022/06/04 04:20:32;;;;;;;20.80;13.30;;;10.80;99.90;;;;;;5049620;28;20087;-68
2022/06/04 04:22:58;;;;;;;17.23;12.43;;;10.90;99.90;;;;;;5050358;28;20045;-67
2022/06/04 04:25:25;;;;;;;30.13;12.73;;;10.90;99.90;;;;;;5058870;28;20048;-68
2022/06/04 04:27:52;;;;;;;16.30;11.98;;;10.90;99.90;;;;;;5051699;28;20056;-68
2022/06/04 04:30:22;;;;;;;18.27;11.77;;;11.00;99.90;;;;;;5048797;28;20049;-68
2022/06/04 04:32:49;;;;;;;18.65;13.05;;;10.90;99.90;;;;;;5051697;28;20056;-68
2022/06/04 04:35:18;;;;;;;20.23;12.38;;;11.00;99.90;;;;;;5047150;28;20351;-68
2022/06/04 04:37:44;;;;;;;20.83;12.68;;;11.00;99.90;;;;;;5050023;28;20045;-68
2022/06/04 04:40:11;;;;;;;29.02;13.63;;;11.00;99.90;;;;;;5049791;28;20037;-68
2022/06/04 04:42:38;;;;;;;16.73;10.88;;;11.10;99.90;;;;;;5057105;28;20128;-68
2022/06/04 04:45:07;;;;;;;36.53;13.15;;;11.10;99.90;;;;;;5055379;28;20116;-68
2022/06/04 04:47:40;;;;;;;19.20;11.85;;;11.10;99.90;;;;;;5048345;28;20124;-68
2022/06/04 04:50:12;;;;;;;17.92;11.77;;;11.20;99.90;;;;;;5047519;28;20041;-68
2022/06/04 04:52:38;;;;;;;20.52;11.05;;;11.20;99.90;;;;;;5060601;28;20084;-68
2022/06/04 04:55:04;;;;;;;21.85;11.35;;;11.30;99.90;;;;;;5047600;28;20127;-68
2022/06/04 04:57:30;;;;;;;22.58;12.98;;;11.30;99.90;;;;;;5059036;28;20135;-68
2022/06/04 04:59:56;;;;;;;23.70;11.77;;;11.40;99.90;;;;;;5059203;28;20123;-68
2022/06/04 05:02:21;;;;;;;17.55;11.15;;;11.40;99.90;;;;;;5053316;28;20132;-68
2022/06/04 05:04:47;;;;;;;21.55;12.68;;;11.40;99.90;;;;;;5047550;28;20107;-68
2022/06/04 05:07:13;;;;;;;18.80;10.57;;;11.40;99.90;;;;;;5054141;28;20037;-68
2022/06/04 05:09:40;;;;;;;26.95;11.73;;;11.50;99.90;;;;;;5053587;28;20044;-69
2022/06/04 05:12:10;;;;;;;17.80;12.02;;;11.50;99.90;;;;;;5052323;28;20029;-68
2022/06/04 05:14:37;;;;;;;21.95;11.25;;;11.50;99.90;;;;;;5054262;28;20493;-68
2022/06/04 05:17:03;;;;;;;19.63;11.48;;;11.50;99.90;;;;;;5052695;28;20147;-68
2022/06/04 05:19:29;;;;;;;13.48;10.95;;;11.60;99.90;;;;;;5051696;28;20167;-69
2022/06/04 05:21:55;;;;;;;20.60;12.95;;;11.60;99.90;;;;;;5048021;28;20136;-68
2022/06/04 05:24:24;;;;;;;17.25;11.63;;;11.70;99.90;;;;;;5054552;28;20083;-69
2022/06/04 05:26:50;;;;;;;20.77;10.95;;;11.80;99.90;;;;;;5056910;28;20043;-68
2022/06/04 05:29:16;;;;;;;16.45;10.82;;;11.80;99.90;;;;;;5057994;28;20041;-68
2022/06/04 05:31:43;;;;;;;19.05;11.80;;;11.90;99.90;;;;;;5060428;28;20037;-68
2022/06/04 05:34:09;;;;;;;15.40;11.52;;;11.90;99.90;;;;;;5062629;28;20059;-68
2022/06/04 05:36:36;;;;;;;14.50;11.10;;;12.00;99.90;;;;;;5056722;28;20056;-68
2022/06/04 05:39:04;;;;;;;16.88;10.93;;;12.10;99.90;;;;;;5054559;28;20045;-68
2022/06/04 05:41:29;;;;;;;18.20;10.57;;;12.20;99.90;;;;;;5051766;28;20056;-69
2022/06/04 05:43:55;;;;;;;18.23;9.32;;;12.20;99.90;;;;;;5053658;28;20044;-68
2022/06/04 05:46:22;;;;;;;11.50;9.10;;;12.30;99.90;;;;;;5047796;28;20115;-68
2022/06/04 05:48:49;;;;;;;15.57;10.65;;;12.40;99.90;;;;;;5054392;28;20099;-68
2022/06/04 05:51:19;;;;;;;14.23;10.35;;;12.40;99.90;;;;;;5052816;28;20103;-67
2022/06/04 05:53:45;;;;;;;15.07;10.38;;;12.50;99.90;;;;;;5054907;28;20037;-68
2022/06/04 05:56:19;;;;;;;17.40;10.45;;;12.50;99.90;;;;;;5060645;28;20040;-68
2022/06/04 05:58:48;;;;;;;16.95;10.70;;;12.50;99.90;;;;;;5060933;28;20505;-68
2022/06/04 06:01:14;;;;;;;;;;;12.60;99.90;;;;;;5060103;28;20063;-67
2022/06/04 06:03:40;;;;;;;17.42;11.63;;;12.60;99.90;;;;;;5055030;28;19927;-67
2022/06/04 06:06:14;;;;;;;15.43;10.23;;;12.60;99.90;;;;;;5051354;28;20041;-67
2022/06/04 06:08:40;;;;;;;13.00;10.23;;;12.60;99.90;;;;;;5051056;28;20045;-68
2022/06/04 06:11:08;;;;;;;15.60;9.98;;;12.70;99.90;;;;;;5055668;28;20512;-67
2022/06/04 06:13:33;;;;;;;19.70;11.68;;;12.80;99.90;;;;;;5069424;28;20055;-67
2022/06/04 06:16:12;;;;;;;26.60;10.85;;;12.90;99.90;;;;;;5056157;28;20041;-67
2022/06/04 06:18:37;;;;;;;15.40;10.95;;;12.90;99.90;;;;;;5050262;28;20103;-67
2022/06/04 06:21:09;;;;;;;18.10;11.07;;;12.90;99.90;;;;;;5064608;28;20045;-67
2022/06/04 06:23:36;;;;;;;14.35;11.15;;;12.90;99.90;;;;;;5057349;28;20044;-67
2022/06/04 06:26:06;;;;;;;19.58;9.50;;;12.90;99.90;;;;;;5055978;28;20434;-67
2022/06/04 06:28:35;;;;;;;15.32;10.52;;;12.90;99.90;;;;;;5064968;28;20044;-68
2022/06/04 06:31:02;;;;;;;17.30;10.05;;;13.00;99.90;;;;;;5053081;28;20037;-68
2022/06/04 06:33:29;;;;;;;12.02;10.63;;;13.10;99.90;;;;;;5064471;28;20098;-67
2022/06/04 06:35:57;;;;;;;19.60;10.52;;;13.30;99.90;;;;;;5050076;28;20091;-68
2022/06/04 06:38:22;;;;;;;20.67;10.18;;;13.40;99.90;;;;;;5062220;28;20069;-68
2022/06/04 06:40:48;;;;;;;11.82;9.57;;;13.60;99.90;;;;;;5062333;28;20076;-68
2022/06/04 06:43:14;;;;;;;13.70;9.73;;;13.70;99.90;;;;;;5058690;28;20489;-68
2022/06/04 06:45:41;;;;;;;14.70;11.20;;;13.80;99.90;;;;;;5051644;28;20951;-68
2022/06/04 06:48:08;;;;;;;18.13;10.98;;;13.90;99.90;;;;;;5060461;28;20113;-68
2022/06/04 06:50:34;;;;;;;12.88;10.55;;;14.10;99.90;;;;;;5070256;28;20044;-67
2022/06/04 06:53:00;;;;;;;19.88;9.95;;;14.30;99.90;;;;;;5063107;28;20045;-68
2022/06/04 06:55:27;;;;;;;16.02;10.80;;;14.40;99.90;;;;;;5060623;28;20054;-67
2022/06/04 06:57:53;;;;;;;16.67;11.15;;;14.50;99.90;;;;;;5062801;28;20045;-68
2022/06/04 07:00:19;;;;;;;13.02;10.65;;;14.50;99.90;;;;;;5054722;28;20094;-67
2022/06/04 07:02:44;;;;;;;21.77;10.98;;;14.60;99.90;;;;;;5052790;28;20045;-67
2022/06/04 07:05:11;;;;;;;14.68;9.75;;;14.80;99.90;;;;;;5052368;28;20056;-68
2022/06/04 07:07:37;;;;;;;14.50;11.57;;;15.00;99.90;;;;;;5051075;28;20379;-68
2022/06/04 07:10:04;;;;;;;16.73;10.82;;;15.00;99.90;;;;;;5052006;28;20099;-68
2022/06/04 07:12:31;;;;;;;19.08;12.00;;;15.30;99.90;;;;;;5055822;28;20048;-67
2022/06/04 07:14:57;;;;;;;15.68;10.10;;;15.40;99.90;;;;;;5061670;28;20107;-67
2022/06/04 07:17:23;;;;;;;15.13;10.43;;;15.40;99.90;;;;;;5063155;28;20040;-67
2022/06/04 07:19:49;;;;;;;13.27;9.43;;;15.50;99.90;;;;;;5053515;28;20033;-68
2022/06/04 07:22:15;;;;;;;13.18;10.43;;;15.60;99.90;;;;;;5060571;28;20459;-68
2022/06/04 07:24:41;;;;;;;20.98;11.15;;;15.50;99.90;;;;;;5053171;28;20098;-68
2022/06/04 07:27:08;;;;;;;15.82;9.98;;;15.60;99.90;;;;;;5057537;28;20080;-67
2022/06/04 07:29:34;;;;;;;13.07;9.00;;;16.00;99.90;;;;;;5051568;28;21089;-68
2022/06/04 07:32:00;;;;;;;15.55;9.02;;;16.20;99.90;;;;;;5055603;28;20486;-67
2022/06/04 07:34:29;;;;;;;13.63;8.88;;;16.20;99.90;;;;;;5047647;28;20084;-68
2022/06/04 07:36:55;;;;;;;15.35;10.13;;;16.30;99.90;;;;;;5058296;28;20043;-67
2022/06/04 07:39:22;;;;;;;10.73;9.52;;;16.40;99.90;;;;;;5062188;28;20400;-67
2022/06/04 07:41:53;;;;;;;12.38;9.95;;;16.80;99.90;;;;;;5062252;28;20044;-67
2022/06/04 07:44:22;;;;;;;9.45;8.23;;;17.00;99.90;;;;;;5055097;28;20051;-67
2022/06/04 07:46:48;;;;;;;16.15;8.23;;;17.10;99.90;;;;;;5054329;28;20041;-68
2022/06/04 07:49:17;;;;;;;13.02;8.60;;;17.00;99.90;;;;;;5053859;28;20413;-68
2022/06/04 07:51:43;;;;;;;11.70;9.07;;;17.00;99.90;;;;;;5061397;28;20068;-67
2022/06/04 07:54:09;;;;;;;16.85;10.75;;;17.20;99.90;;;;;;5064293;28;20037;-68
2022/06/04 07:56:36;;;;;;;9.68;8.23;;;17.20;99.90;;;;;;5051778;28;20048;-66
2022/06/04 07:59:03;;;;;;;15.40;9.73;;;17.60;99.90;;;;;;5054558;28;20037;-68
2022/06/04 08:01:30;;;;;;;10.80;9.27;;;17.50;99.90;;;;;;5057658;28;20442;-68
2022/06/04 08:03:56;;;;;;;14.07;9.43;;;17.40;99.90;;;;;;5059814;28;20408;-68
2022/06/04 08:06:22;;;;;;;9.95;8.77;;;17.40;99.90;;;;;;5059492;28;20127;-68
2022/06/04 08:08:50;;;;;;;18.00;10.07;;;17.40;99.90;;;;;;5055606;28;20086;-70
2022/06/04 08:11:31;;;;;;;16.08;9.70;;;17.40;99.90;;;;;;5048021;28;20040;-68
2022/06/04 08:14:14;;;;;;;13.30;9.25;;;17.30;99.90;;;;;;5048056;28;20040;-67
2022/06/04 08:16:43;;;;;;;36.28;12.25;;;17.50;99.90;;;;;;5051530;28;20037;-69
2022/06/04 08:19:08;;;;;;;13.07;9.50;;;17.40;99.90;;;;;;5049713;28;20052;-68
2022/06/04 08:21:38;;;;;;;12.82;9.32;;;17.40;99.90;;;;;;5064406;28;20880;-69
2022/06/04 08:24:05;;;;;;;13.98;8.35;;;17.40;99.90;;;;;;5047266;28;20489;-68
2022/06/04 08:26:31;;;;;;;15.05;9.32;;;17.50;99.90;;;;;;5048025;28;20049;-68
2022/06/04 08:28:57;;;;;;;22.65;9.23;;;17.40;99.90;;;;;;5062270;28;20202;-68
2022/06/04 08:31:23;;;;;;;12.95;9.18;;;17.70;99.90;;;;;;5052229;28;20087;-68
2022/06/04 08:33:49;;;;;;;13.85;9.93;;;18.20;99.90;;;;;;5053755;28;20040;-68
2022/06/04 08:36:16;;;;;;;14.00;9.13;;;18.20;99.90;;;;;;5051014;28;20135;-68
2022/06/04 08:38:43;;;;;;;14.73;9.70;;;18.10;99.90;;;;;;5056091;28;20049;-67
2022/06/04 08:41:21;;;;;;;15.57;10.85;;;18.10;99.90;;;;;;5052532;28;20041;-68
2022/06/04 08:43:53;;;;;;;12.27;8.75;;;18.50;99.90;;;;;;5054030;28;20056;-69
2022/06/04 08:46:34;;;;;;;11.95;8.68;;;18.60;99.90;;;;;;5048053;28;20041;-68
2022/06/04 08:49:05;;;;;;;14.73;8.30;;;18.80;99.90;;;;;;5055064;28;20719;-68
2022/06/04 08:51:31;;;;;;;13.60;9.30;;;19.00;99.90;;;;;;5056889;28;20059;-68
2022/06/04 08:57:32;;;;;;;10.50;8.00;;;18.90;99.90;;;;;;5060168;28;20052;-68
2022/06/04 08:59:49;;;;;;;15.15;9.65;;;19.50;99.90;;;;;;5058443;28;20088;-68
2022/06/04 09:02:25;;;;;;;16.42;8.38;;;19.60;99.90;;;;;;5060287;28;20489;-68
2022/06/04 09:05:19;;;;;;;11.35;8.15;;;19.70;99.90;;;;;;5057779;28;20497;-68
2022/06/04 09:07:50;;;;;;;12.05;8.27;;;19.50;99.90;;;;;;5047578;28;20051;-68
2022/06/04 09:10:24;;;;;;;11.45;8.18;;;19.40;99.90;;;;;;5052260;28;20165;-68
2022/06/04 09:13:09;;;;;;;13.68;8.95;;;19.30;99.90;;;;;;5061710;28;20047;-68
2022/06/04 09:15:36;;;;;;;16.88;9.15;;;19.30;99.90;;;;;;5054007;28;20048;-69
2022/06/04 09:18:27;;;;;;;13.07;9.18;;;19.40;99.90;;;;;;5060478;28;20039;-68
2022/06/04 09:20:59;;;;;;;11.73;9.02;;;19.30;99.90;;;;;;5055017;28;20402;-68
2022/06/04 09:23:27;;;;;;;15.68;8.85;;;19.30;99.90;;;;;;5052198;28;20038;-68
2022/06/04 09:26:12;;;;;;;16.95;9.85;;;19.20;99.90;;;;;;5057916;28;20047;-67
2022/06/04 09:28:56;;;;;;;11.98;8.60;;;19.30;99.90;;;;;;5049282;28;20076;-68
2022/06/04 09:31:40;;;;;;;15.15;9.13;;;19.40;99.90;;;;;;5053711;28;20053;-69
2022/06/04 09:34:15;;;;;;;14.00;9.25;;;19.20;99.90;;;;;;5047112;28;20482;-69
2022/06/04 09:36:45;;;;;;;13.02;9.52;;;19.40;99.90;;;;;;5052885;28;20115;-68
2022/06/04 09:39:34;;;;;;;15.82;9.48;;;19.10;99.90;;;;;;5054196;28;20045;-68
2022/06/04 09:42:13;;;;;;;13.85;9.48;;;19.50;99.90;;;;;;5053883;28;20116;-68
2022/06/04 09:44:51;;;;;;;12.32;9.68;;;19.60;99.90;;;;;;5046164;28;20037;-68
2022/06/04 09:47:27;;;;;;;25.73;10.10;;;19.70;99.90;;;;;;5046830;28;20049;-68
2022/06/04 09:50:00;;;;;;;15.93;9.88;;;20.00;99.90;;;;;;5047390;28;20037;-68
2022/06/04 09:52:55;;;;;;;16.00;10.90;;;19.90;99.90;;;;;;5051260;28;20604;-68
2022/06/04 09:55:24;;;;;;;13.25;9.45;;;19.90;99.90;;;;;;5058614;28;20052;-67
2022/06/04 09:57:58;;;;;;;11.48;7.15;;;20.20;99.90;;;;;;5055483;28;20087;-68
2022/06/04 10:00:28;;;;;;;14.05;9.00;;;20.10;94.70;;;;;;5048451;28;20474;-67
2022/06/04 10:03:00;;;;;;;11.57;8.57;;;20.00;99.90;;;;;;5059110;28;20064;-68
2022/06/04 10:05:30;;;;;;;15.82;9.38;;;19.70;96.40;;;;;;5051584;28;20135;-68
2022/06/04 10:07:56;;;;;;;15.15;9.68;;;19.60;99.80;;;;;;5056164;28;20028;-68
2022/06/04 10:10:38;;;;;;;11.90;9.80;;;19.70;99.90;;;;;;5051907;28;20561;-68
2022/06/04 10:16:23;;;;;;;10.25;8.38;;;20.00;99.90;;;;;;5059564;28;20057;-68
2022/06/04 10:18:56;;;;;;;11.55;8.68;;;20.50;99.90;;;;;;5060692;28;20051;-68
2022/06/04 10:21:31;;;;;;;11.05;8.45;;;20.50;97.70;;;;;;5048445;28;20406;-68
2022/06/04 10:23:59;;;;;;;10.60;8.70;;;20.80;99.90;;;;;;5047063;28;20056;-68
2022/06/04 10:26:41;;;;;;;9.13;7.00;;;20.80;97.80;;;;;;5048023;28;20048;-68
2022/06/04 10:29:34;;;;;;;12.15;8.55;;;20.90;99.30;;;;;;5054079;28;20059;-68
2022/06/04 10:32:18;;;;;;;15.18;9.48;;;21.10;94.70;;;;;;5046818;28;20049;-68
2022/06/04 10:35:00;;;;;;;12.68;9.40;;;20.80;97.10;;;;;;5050023;28;20065;-67
2022/06/04 10:37:35;;;;;;;10.77;8.93;;;20.80;99.90;;;;;;5055562;28;20045;-68
2022/06/04 10:40:22;;;;;;;11.05;9.05;;;20.80;93.00;;;;;;5049680;28;20048;-68
2022/06/04 10:43:17;;;;;;;18.23;9.65;;;20.80;96.70;;;;;;5057022;28;20615;-68
2022/06/04 10:46:00;;;;;;;12.75;8.95;;;21.10;98.50;;;;;;5056414;28;20065;-68
2022/06/04 10:48:50;;;;;;;10.82;8.00;;;21.10;93.50;;;;;;5054825;28;20052;-68
2022/06/04 10:51:47;;;;;;;10.10;8.70;;;21.00;91.10;;;;;;5055904;28;20057;-68
2022/06/04 10:54:21;;;;;;;9.90;8.65;;;21.10;86.60;;;;;;5057089;28;20105;-68
2022/06/04 10:57:07;;;;;;;11.35;8.73;;;20.90;91.10;;;;;;5064220;28;20040;-68
2022/06/04 10:59:39;;;;;;;15.77;9.73;;;20.50;94.30;;;;;;5043903;28;20053;-69
2022/06/04 11:02:33;;;;;;;14.50;8.75;;;20.60;91.90;;;;;;5064912;28;20049;-69
2022/06/04 11:05:08;;;;;;;13.18;7.88;;;20.80;97.70;;;;;;5068242;28;20090;-75
2022/06/04 11:08:11;;;;;;;9.13;6.80;;;21.40;99.90;;;;;;5062588;28;20052;-68
2022/06/04 11:10:39;;;;;;;10.27;8.80;;;21.80;98.90;;;;;;5053522;28;20048;-69
2022/06/04 11:13:30;;;;;;;12.95;8.90;;;21.70;92.10;;;;;;5049606;28;20048;-69
2022/06/04 11:16:08;;;;;;;14.23;7.95;;;21.50;87.80;;;;;;5050311;28;20044;-69
2022/06/04 11:18:47;;;;;;;10.15;7.22;;;21.50;91.30;;;;;;5061710;28;20167;-68
2022/06/04 11:21:29;;;;;;;15.43;9.13;;;21.40;87.90;;;;;;5058406;28;20094;-69
2022/06/04 11:24:02;;;;;;;8.00;6.93;;;21.50;89.30;;;;;;5069125;28;20082;-68
2022/06/04 11:26:48;;;;;;;10.25;6.95;;;21.70;95.20;;;;;;5050414;28;20128;-69
2022/06/04 11:29:14;;;;;;;12.23;6.60;;;21.50;72.80;;;;;;5058210;28;20048;-69
2022/06/04 11:31:42;;;;;;;10.15;8.02;;;20.90;93.60;;;;;;5058642;28;20037;-69
2022/06/04 11:34:49;;;;;;;10.75;8.10;;;20.90;92.30;;;;;;5055474;28;20064;-68
2022/06/04 11:37:27;;;;;;;8.93;8.02;;;21.20;92.80;;;;;;5055851;28;20048;-69
2022/06/04 11:40:14;;;;;;;13.40;8.05;;;21.50;87.40;;;;;;5057865;28;20071;-68
2022/06/04 11:42:55;;;;;;;15.70;7.15;;;21.40;87.60;;;;;;5058692;28;20116;-68
2022/06/04 11:45:45;;;;;;;12.13;7.70;;;21.70;87.30;;;;;;5050335;28;20056;-69
2022/06/04 11:48:35;;;;;;;8.57;6.20;;;21.60;79.00;;;;;;5048757;28;20072;-68
2022/06/04 11:51:29;;;;;;;9.68;6.68;;;21.30;87.10;;;;;;5053497;28;20048;-69
2022/06/04 11:54:05;;;;;;;23.45;7.95;;;21.10;77.90;;;;;;5074213;28;20055;-69
2022/06/04 11:56:54;;;;;;;9.55;6.50;;;21.00;82.70;;;;;;5058951;28;20079;-68
2022/06/04 11:59:33;;;;;;;11.50;8.00;;;21.10;83.40;;;;;;5041502;28;20053;-69
2022/06/04 12:02:27;;;;;;;10.77;7.68;;;21.00;84.00;;;;;;5059328;28;20076;-69
2022/06/04 12:05:42;;;;;;;15.05;7.28;;;20.70;91.10;;;;;;5043690;28;20139;-69
2022/06/04 12:08:15;;;;;;;13.48;8.50;;;20.60;93.10;;;;;;4991930;28;20050;-69
2022/06/04 12:10:52;;;;;;;14.52;7.57;;;20.90;97.00;;;;;;5049197;28;20057;-68
2022/06/04 12:13:37;;;;;;;10.38;7.72;;;21.20;98.00;;;;;;5053191;28;20106;-68
2022/06/04 12:16:24;;;;;;;16.02;6.75;;;21.40;91.70;;;;;;5049434;28;20068;-70
2022/06/04 12:18:59;;;;;;;9.82;7.68;;;21.50;87.90;;;;;;5050092;28;20087;-70
2022/06/04 12:24:30;;;;;;;15.18;7.60;;;21.50;82.20;;;;;;5061521;28;20513;-69
2022/06/04 12:27:19;;;;;;;10.82;6.75;;;21.20;78.20;;;;;;5048562;28;20064;-69
2022/06/04 12:29:47;;;;;;;8.32;5.95;;;21.30;80.30;;;;;;5062159;28;20119;-69
2022/06/04 12:32:28;;;;;;;9.13;6.30;;;21.30;82.40;;;;;;5055688;28;20052;-69
2022/06/04 12:35:08;;;;;;;8.15;6.15;;;21.40;81.50;;;;;;5059388;28;20494;-69
2022/06/04 12:37:43;;;;;;;12.57;6.63;;;21.30;74.70;;;;;;5054542;28;20037;-69
2022/06/04 12:40:19;;;;;;;7.93;6.22;;;20.90;77.60;;;;;;5064124;28;20119;-68
2022/06/04 12:43:18;;;;;;;13.93;6.47;;;20.60;84.70;;;;;;5055527;28;20041;-69
2022/06/04 12:45:46;;;;;;;7.95;6.22;;;20.40;82.60;;;;;;5052300;28;20043;-70
2022/06/04 12:48:25;;;;;;;6.22;5.28;;;20.60;91.20;;;;;;5057448;28;20048;-70
2022/06/04 12:50:59;;;;;;;8.48;6.78;;;20.50;81.50;;;;;;5048843;28;20712;-69
2022/06/04 12:53:27;;;;;;;20.80;6.75;;;20.50;91.10;;;;;;5056103;28;20505;-70
2022/06/04 12:56:01;;;;;;;9.43;5.25;;;20.50;91.20;;;;;;5061595;28;20056;-70
2022/06/04 12:58:29;;;;;;;7.38;6.00;;;20.40;82.90;;;;;;5051460;28;20049;-69
2022/06/04 13:01:01;;;;;;;10.05;8.55;;;20.40;91.00;;;;;;5054196;28;20124;-70
2022/06/04 13:03:38;;;;;;;8.82;7.00;;;20.70;93.00;;;;;;5054595;28;20048;-69
2022/06/04 13:06:19;;;;;;;;;;;20.90;95.90;;;;;;5046569;28;20095;-69
2022/06/04 13:09:00;;;;;;;10.60;7.78;;;21.00;99.20;;;;;;5061398;28;19921;-70
2022/06/04 13:11:54;;;;;;;7.95;6.25;;;21.30;94.90;;;;;;5055106;28;20048;-71
2022/06/04 13:14:28;;;;;;;10.73;7.22;;;21.70;99.90;;;;;;5065698;28;20497;-72
2022/06/04 13:16:57;;;;;;;9.02;7.50;;;21.70;87.60;;;;;;5067664;28;20505;-71
2022/06/04 13:19:51;;;;;;;9.98;7.28;;;21.70;93.50;;;;;;5048481;28;20086;-71